createdAt,value
2019-06-20T00:00:59.036Z,19.00
2019-06-20T00:03:27.193Z,18.70
2019-06-20T00:05:54.157Z,18.60
2019-06-20T00:08:22.340Z,18.60
2019-06-20T00:10:50.905Z,18.60
2019-06-20T00:13:18.975Z,18.80
2019-06-20T00:15:47.484Z,18.70
2019-06-20T00:18:15.555Z,18.60
2019-06-20T00:20:43.712Z,18.60
2019-06-20T00:23:11.814Z,18.50
2019-06-20T00:25:39.863Z,18.50
2019-06-20T00:28:08.043Z,18.20
2019-06-20T00:30:35.312Z,18.50
2019-06-20T00:33:03.695Z,18.40
2019-06-20T00:35:31.976Z,18.50
2019-06-20T00:38:00.151Z,18.40
2019-06-20T00:40:27.323Z,18.50
2019-06-20T00:42:55.382Z,18.60
2019-06-20T00:45:23.961Z,18.70
2019-06-20T00:47:52.353Z,18.50
2019-06-20T00:50:20.464Z,18.50
2019-06-20T00:52:48.751Z,18.80
2019-06-20T00:55:16.996Z,18.50
2019-06-20T00:57:44.937Z,18.50
2019-06-20T01:00:13.642Z,18.50
2019-06-20T01:02:41.686Z,18.50
2019-06-20T01:05:09.800Z,18.50
2019-06-20T01:07:38.167Z,18.60
2019-06-20T01:10:06.018Z,18.80
2019-06-20T01:12:34.292Z,18.80
2019-06-20T01:15:03.226Z,18.50
2019-06-20T01:17:30.603Z,18.60
2019-06-20T01:19:58.680Z,18.50
2019-06-20T01:22:26.872Z,18.50
2019-06-20T01:24:55.042Z,18.70
2019-06-20T01:27:23.303Z,18.60
2019-06-20T01:29:51.283Z,18.70
2019-06-20T01:32:19.675Z,18.60
2019-06-20T01:34:46.932Z,18.50
2019-06-20T01:37:14.995Z,18.60
2019-06-20T01:39:43.254Z,18.50
2019-06-20T01:42:11.505Z,18.40
2019-06-20T01:44:39.606Z,18.60
2019-06-20T01:47:07.852Z,18.40
2019-06-20T01:49:34.831Z,18.70
2019-06-20T01:52:03.236Z,18.60
2019-06-20T01:54:31.378Z,18.20
2019-06-20T01:56:59.796Z,18.50
2019-06-20T01:59:27.148Z,18.30
2019-06-20T02:01:55.682Z,18.30
2019-06-20T02:04:22.836Z,18.70
2019-06-20T02:07:02.128Z,18.40
2019-06-20T02:09:30.204Z,18.20
2019-06-20T02:11:57.192Z,18.20
2019-06-20T02:14:24.261Z,18.30
2019-06-20T02:16:51.584Z,18.50
2019-06-20T02:19:19.791Z,18.50
2019-06-20T02:21:47.859Z,18.40
2019-06-20T02:24:16.372Z,18.50
2019-06-20T02:26:43.529Z,18.50
2019-06-20T02:29:11.646Z,18.60
2019-06-20T02:31:40.296Z,18.80
2019-06-20T02:34:08.706Z,18.40
2019-06-20T02:36:35.967Z,18.40
2019-06-20T02:39:05.850Z,18.60
2019-06-20T02:41:34.399Z,18.50
2019-06-20T02:44:02.666Z,18.50
2019-06-20T02:46:30.992Z,18.50
2019-06-20T02:48:58.002Z,18.90
2019-06-20T02:51:26.227Z,18.70
2019-06-20T02:53:54.303Z,18.40
2019-06-20T02:56:22.336Z,18.40
2019-06-20T02:58:50.279Z,18.60
2019-06-20T03:01:18.895Z,18.50
2019-06-20T03:03:47.565Z,18.20
2019-06-20T03:06:15.971Z,18.20
2019-06-20T03:08:42.963Z,18.20
2019-06-20T03:11:11.150Z,18.20
2019-06-20T03:13:39.449Z,18.30
2019-06-20T03:16:07.609Z,18.10
2019-06-20T03:18:35.852Z,18.00
2019-06-20T03:21:04.135Z,18.20
2019-06-20T03:23:31.344Z,18.10
2019-06-20T03:25:59.399Z,18.10
2019-06-20T03:28:27.594Z,18.10
2019-06-20T03:30:55.612Z,18.30
2019-06-20T03:33:23.825Z,18.30
2019-06-20T03:35:52.062Z,18.30
2019-06-20T03:38:20.049Z,18.10
2019-06-20T03:40:48.195Z,18.20
2019-06-20T03:43:16.623Z,18.00
2019-06-20T03:45:44.684Z,18.00
2019-06-20T03:48:13.218Z,17.80
2019-06-20T03:50:41.501Z,17.90
2019-06-20T03:53:10.054Z,18.10
2019-06-20T03:55:37.100Z,17.80
2019-06-20T03:58:05.228Z,17.70
2019-06-20T04:00:34.497Z,18.10
2019-06-20T04:03:04.997Z,17.70
2019-06-20T04:05:33.957Z,18.00
2019-06-20T04:08:01.138Z,17.70
2019-06-20T04:10:29.175Z,17.80
2019-06-20T04:12:57.258Z,18.20
2019-06-20T04:15:25.596Z,18.10
2019-06-20T04:17:54.181Z,17.70
2019-06-20T04:20:22.964Z,17.70
2019-06-20T04:22:50.458Z,17.80
2019-06-20T04:25:19.691Z,17.80
2019-06-20T04:27:47.327Z,18.00
2019-06-20T04:30:15.550Z,17.70
2019-06-20T04:32:44.683Z,17.70
2019-06-20T04:35:12.021Z,17.80
2019-06-20T04:37:43.008Z,18.30
2019-06-20T04:40:11.740Z,17.80
2019-06-20T04:42:40.989Z,17.90
2019-06-20T04:45:35.521Z,18.00
2019-06-20T04:48:02.864Z,17.90
2019-06-20T04:50:31.398Z,17.90
2019-06-20T04:53:00.021Z,17.80
2019-06-20T04:55:28.397Z,18.20
2019-06-20T04:57:56.796Z,17.90
2019-06-20T05:00:25.346Z,17.90
2019-06-20T05:02:53.845Z,18.00
2019-06-20T05:05:22.498Z,18.00
2019-06-20T05:07:49.899Z,18.10
2019-06-20T05:10:18.384Z,18.00
2019-06-20T05:12:47.424Z,17.90
2019-06-20T05:15:15.827Z,17.70
2019-06-20T05:17:44.277Z,17.90
2019-06-20T05:20:12.091Z,18.30
2019-06-20T05:22:40.580Z,17.90
2019-06-20T05:25:12.887Z,18.10
2019-06-20T05:27:40.419Z,17.90
2019-06-20T05:30:09.766Z,18.20
2019-06-20T05:32:36.957Z,18.40
2019-06-20T05:35:06.300Z,18.40
2019-06-20T05:37:35.442Z,17.90
2019-06-20T05:40:04.009Z,18.30
2019-06-20T05:42:31.771Z,18.40
2019-06-20T05:44:59.629Z,18.40
2019-06-20T05:47:26.697Z,18.40
2019-06-20T05:49:55.075Z,18.30
2019-06-20T05:52:23.483Z,18.10
2019-06-20T05:54:52.011Z,18.40
2019-06-20T05:57:20.718Z,18.60
2019-06-20T05:59:48.116Z,18.50
2019-06-20T06:02:16.566Z,18.70
2019-06-20T06:04:45.061Z,18.70
2019-06-20T06:07:14.292Z,18.50
2019-06-20T06:09:42.808Z,18.50
2019-06-20T06:12:10.798Z,18.70
2019-06-20T06:14:39.664Z,18.60
2019-06-20T06:17:08.391Z,18.30
2019-06-20T06:19:36.642Z,18.50
2019-06-20T06:22:04.706Z,18.50
2019-06-20T06:24:33.070Z,18.60
2019-06-20T06:27:01.660Z,18.60
2019-06-20T06:29:30.137Z,18.50
2019-06-20T06:31:58.230Z,18.50
2019-06-20T06:34:26.743Z,18.50
2019-06-20T06:36:54.402Z,18.60
2019-06-20T06:39:23.211Z,18.80
2019-06-20T06:41:51.587Z,18.40
2019-06-20T06:44:19.995Z,18.50
2019-06-20T06:46:53.481Z,18.60
2019-06-20T06:49:18.539Z,18.60
2019-06-20T06:51:46.876Z,18.60
2019-06-20T06:54:15.354Z,18.60
2019-06-20T06:56:43.102Z,18.70
2019-06-20T06:59:11.561Z,18.70
2019-06-20T07:01:40.388Z,18.60
2019-06-20T07:04:08.868Z,18.80
2019-06-20T07:06:36.639Z,18.80
2019-06-20T07:09:07.880Z,18.90
2019-06-20T07:11:36.872Z,18.90
2019-06-20T07:14:05.285Z,18.90
2019-06-20T07:16:33.762Z,19.10
2019-06-20T07:19:02.422Z,19.10
2019-06-20T07:21:31.213Z,19.20
2019-06-20T07:23:58.487Z,19.50
2019-06-20T07:26:27.053Z,19.60
2019-06-20T07:28:55.249Z,19.50
2019-06-20T07:31:23.897Z,19.70
2019-06-20T07:33:51.980Z,19.50
2019-06-20T07:36:20.162Z,19.30
2019-06-20T07:38:48.327Z,19.20
2019-06-20T07:41:15.469Z,19.00
2019-06-20T07:43:43.749Z,19.30
2019-06-20T07:46:11.811Z,18.90
2019-06-20T07:48:40.178Z,18.90
2019-06-20T07:51:08.483Z,18.90
2019-06-20T07:53:36.804Z,19.00
2019-06-20T07:56:03.857Z,19.40
2019-06-20T07:58:32.137Z,19.60
2019-06-20T08:01:00.471Z,19.70
2019-06-20T08:03:28.706Z,19.60
2019-06-20T08:05:56.973Z,19.60
2019-06-20T08:08:25.054Z,19.70
2019-06-20T08:10:52.002Z,19.50
2019-06-20T08:13:20.252Z,19.50
2019-06-20T08:15:48.532Z,19.50
2019-06-20T08:18:16.699Z,19.50
2019-06-20T08:20:44.777Z,19.40
2019-06-20T08:23:13.108Z,19.60
2019-06-20T08:25:41.288Z,20.90
2019-06-20T08:28:09.305Z,22.60
2019-06-20T08:30:37.900Z,23.20
2019-06-20T08:33:11.752Z,23.10
2019-06-20T08:35:37.252Z,22.80
2019-06-20T08:38:06.114Z,22.50
2019-06-20T08:40:39.516Z,22.20
2019-06-20T08:43:07.839Z,21.60
2019-06-20T08:45:37.506Z,21.30
2019-06-20T08:48:07.258Z,21.50
2019-06-20T08:50:35.193Z,21.50
2019-06-20T08:53:03.592Z,21.80
2019-06-20T08:55:30.973Z,22.10
2019-06-20T08:57:59.699Z,21.80
2019-06-20T09:00:31.791Z,21.90
2019-06-20T09:03:00.164Z,21.70
2019-06-20T09:05:30.541Z,21.70
2019-06-20T09:08:00.392Z,21.90
2019-06-20T09:10:36.159Z,21.80
2019-06-20T09:13:05.510Z,21.50
2019-06-20T09:15:32.897Z,21.50
2019-06-20T09:18:00.939Z,21.30
2019-06-20T09:20:28.986Z,21.30
2019-06-20T09:22:57.046Z,21.40
2019-06-20T09:25:25.279Z,21.40
2019-06-20T09:27:54.420Z,21.20
2019-06-20T09:30:22.898Z,21.70
2019-06-20T09:32:52.276Z,21.90
2019-06-20T09:35:21.383Z,22.10
2019-06-20T09:37:50.894Z,22.20
2019-06-20T09:40:20.349Z,22.00
2019-06-20T09:42:48.732Z,21.90
2019-06-20T09:45:18.599Z,22.00
2019-06-20T09:47:45.997Z,21.90
2019-06-20T09:50:14.518Z,21.80
2019-06-20T09:52:42.570Z,21.90
2019-06-20T09:55:11.943Z,22.20
2019-06-20T09:57:40.161Z,21.70
2019-06-20T10:00:10.619Z,21.70
2019-06-20T10:02:39.341Z,21.50
2019-06-20T10:05:08.611Z,21.60
2019-06-20T10:07:37.068Z,21.50
2019-06-20T10:10:06.749Z,21.20
2019-06-20T10:12:33.969Z,21.20
2019-06-20T10:15:02.979Z,21.30
2019-06-20T10:17:30.198Z,21.50
2019-06-20T10:19:58.435Z,21.80
2019-06-20T10:22:26.495Z,21.30
2019-06-20T10:24:54.551Z,21.30
2019-06-20T10:27:22.596Z,21.40
2019-06-20T10:29:51.092Z,21.30
2019-06-20T10:32:19.451Z,21.30
2019-06-20T10:34:48.355Z,21.50
2019-06-20T10:37:16.576Z,21.40
2019-06-20T10:39:46.089Z,21.40
2019-06-20T10:42:14.189Z,21.50
2019-06-20T10:44:43.207Z,21.40
2019-06-20T10:47:12.195Z,21.40
2019-06-20T10:49:42.890Z,21.30
2019-06-20T10:52:11.231Z,21.20
2019-06-20T10:54:39.167Z,21.40
2019-06-20T10:57:07.347Z,21.40
2019-06-20T10:59:35.402Z,22.10
2019-06-20T11:02:06.470Z,22.40
2019-06-20T11:04:32.548Z,22.50
2019-06-20T11:06:59.493Z,22.60
2019-06-20T11:09:27.690Z,22.90
2019-06-20T11:11:55.750Z,23.10
2019-06-20T11:14:24.146Z,22.60
2019-06-20T11:16:52.759Z,22.60
2019-06-20T11:19:20.727Z,22.30
2019-06-20T11:21:49.149Z,22.10
2019-06-20T11:24:17.189Z,22.20
2019-06-20T11:26:46.030Z,22.30
2019-06-20T11:29:14.051Z,22.80
2019-06-20T11:31:46.238Z,22.40
2019-06-20T11:34:13.188Z,22.50
2019-06-20T11:36:42.427Z,22.20
2019-06-20T11:39:10.551Z,22.50
2019-06-20T11:41:39.588Z,22.80
2019-06-20T11:44:08.445Z,22.90
2019-06-20T11:46:37.010Z,23.10
2019-06-20T11:49:06.290Z,23.50
2019-06-20T11:51:35.945Z,23.60
2019-06-20T11:54:04.552Z,24.00
2019-06-20T11:56:33.105Z,23.30
2019-06-20T11:59:01.691Z,23.40
2019-06-20T12:01:32.908Z,23.20
2019-06-20T12:03:59.791Z,22.90
2019-06-20T12:06:27.442Z,23.30
2019-06-20T12:08:55.476Z,23.60
2019-06-20T12:11:23.892Z,23.90
2019-06-20T12:13:53.378Z,23.90
2019-06-20T12:16:21.162Z,24.20
2019-06-20T12:18:49.430Z,24.20
2019-06-20T12:21:18.182Z,24.40
2019-06-20T12:23:47.227Z,24.50
2019-06-20T12:26:15.897Z,24.20
2019-06-20T12:28:44.721Z,24.60
2019-06-20T12:31:22.166Z,24.10
2019-06-20T12:33:49.578Z,24.10
2019-06-20T12:36:16.697Z,24.30
2019-06-20T12:38:44.352Z,24.30
2019-06-20T12:41:12.555Z,24.20
2019-06-20T12:43:41.768Z,24.40
2019-06-20T12:46:09.977Z,24.40
2019-06-20T12:48:38.139Z,24.20
2019-06-20T12:51:06.582Z,24.00
2019-06-20T12:53:33.543Z,24.00
2019-06-20T12:56:01.872Z,23.80
2019-06-20T12:58:30.580Z,24.10
2019-06-20T13:00:57.950Z,23.90
2019-06-20T13:03:26.649Z,23.80
2019-06-20T13:05:54.054Z,23.70
2019-06-20T13:08:22.737Z,23.70
2019-06-20T13:10:51.023Z,23.70
2019-06-20T13:13:19.801Z,24.00
2019-06-20T13:15:48.967Z,23.70
2019-06-20T13:18:16.052Z,23.70
2019-06-20T13:20:44.285Z,24.00
2019-06-20T13:23:12.911Z,23.40
2019-06-20T13:25:40.977Z,23.30
2019-06-20T13:28:10.308Z,23.30
2019-06-20T13:30:39.861Z,23.30
2019-06-20T13:33:07.767Z,23.20
2019-06-20T13:35:36.204Z,23.10
2019-06-20T13:38:04.833Z,23.00
2019-06-20T13:40:31.899Z,22.70
2019-06-20T13:43:00.139Z,22.60
2019-06-20T13:45:28.464Z,22.60
2019-06-20T13:47:56.543Z,22.20
2019-06-20T13:50:25.862Z,22.30
2019-06-20T13:52:54.009Z,21.90
2019-06-20T13:55:22.334Z,22.00
2019-06-20T13:57:50.637Z,22.00
2019-06-20T14:00:19.116Z,22.00
2019-06-20T14:02:48.722Z,22.10
2019-06-20T14:05:17.967Z,22.10
2019-06-20T14:07:48.458Z,21.90
2019-06-20T14:10:16.421Z,21.90
2019-06-20T14:12:44.864Z,22.10
2019-06-20T14:15:13.228Z,22.20
2019-06-20T14:17:41.957Z,22.50
2019-06-20T14:20:13.392Z,22.50
2019-06-20T14:22:41.424Z,22.60
2019-06-20T14:25:11.132Z,22.70
2019-06-20T14:27:39.203Z,22.70
2019-06-20T14:30:07.570Z,22.70
2019-06-20T14:32:36.022Z,22.70
2019-06-20T14:35:04.462Z,23.00
2019-06-20T14:37:33.213Z,22.50
2019-06-20T14:40:01.921Z,22.50
2019-06-20T14:42:28.977Z,22.40
2019-06-20T14:44:57.143Z,22.50
2019-06-20T14:47:25.333Z,22.50
2019-06-20T14:49:53.060Z,22.30
2019-06-20T14:52:21.103Z,22.30
2019-06-20T14:54:49.834Z,21.70
2019-06-20T14:57:18.283Z,20.90
2019-06-20T14:59:46.992Z,20.70
2019-06-20T15:02:16.662Z,20.70
2019-06-20T15:04:46.078Z,20.60
2019-06-20T15:07:14.659Z,20.50
2019-06-20T15:09:42.764Z,20.50
2019-06-20T15:12:10.971Z,20.40
2019-06-20T15:14:39.267Z,20.70
2019-06-20T15:17:06.607Z,20.40
2019-06-20T15:19:34.689Z,20.40
2019-06-20T15:22:03.238Z,20.70
2019-06-20T15:24:31.287Z,20.70
2019-06-20T15:26:59.543Z,20.50
2019-06-20T15:29:27.638Z,20.60
2019-06-20T15:31:56.993Z,20.20
2019-06-20T15:34:24.065Z,20.40
2019-06-20T15:36:51.543Z,20.50
2019-06-20T15:39:19.659Z,20.70
2019-06-20T15:41:49.664Z,20.50
2019-06-20T15:44:18.049Z,20.80
2019-06-20T15:46:48.305Z,20.90
2019-06-20T15:49:16.419Z,21.00
2019-06-20T15:51:43.863Z,20.70
2019-06-20T15:54:12.164Z,20.70
2019-06-20T15:56:40.293Z,20.90
2019-06-20T15:59:08.467Z,20.80
2019-06-20T16:01:35.563Z,20.70
2019-06-20T16:04:03.730Z,20.70
2019-06-20T16:06:31.729Z,20.50
2019-06-20T16:09:00.767Z,20.50
2019-06-20T16:11:28.088Z,20.70
2019-06-20T16:13:56.187Z,20.60
2019-06-20T16:16:24.235Z,20.70
2019-06-20T16:18:52.191Z,20.50
2019-06-20T16:21:20.162Z,20.70
2019-06-20T16:23:48.226Z,20.60
2019-06-20T16:26:16.402Z,20.50
2019-06-20T16:28:44.613Z,20.90
2019-06-20T16:31:25.819Z,20.20
2019-06-20T16:33:42.813Z,20.30
2019-06-20T16:36:12.972Z,20.30
2019-06-20T16:38:41.110Z,20.70
2019-06-20T16:41:08.278Z,20.40
2019-06-20T16:43:36.685Z,20.30
2019-06-20T16:46:04.927Z,20.50
2019-06-20T16:48:33.109Z,20.50
2019-06-20T16:51:01.979Z,20.60
2019-06-20T16:53:29.139Z,20.70
2019-06-20T16:55:57.181Z,20.70
2019-06-20T16:58:25.356Z,21.10
2019-06-20T17:00:52.548Z,20.80
2019-06-20T17:03:20.763Z,20.90
2019-06-20T17:05:48.973Z,20.80
2019-06-20T17:08:17.201Z,20.90
2019-06-20T17:10:46.339Z,20.70
2019-06-20T17:13:13.305Z,20.50
2019-06-20T17:15:41.502Z,19.70
2019-06-20T17:18:09.555Z,20.30
2019-06-20T17:20:37.909Z,20.20
2019-06-20T17:23:06.909Z,20.00
2019-06-20T17:25:34.408Z,20.00
2019-06-20T17:28:01.770Z,20.00
2019-06-20T17:30:30.115Z,20.10
2019-06-20T17:32:58.161Z,20.00
2019-06-20T17:35:26.466Z,20.10
2019-06-20T17:37:54.797Z,20.20
2019-06-20T17:40:24.826Z,20.20
2019-06-20T17:42:52.084Z,20.10
2019-06-20T17:45:21.108Z,20.00
2019-06-20T17:47:49.401Z,20.00
2019-06-20T17:50:16.907Z,19.90
2019-06-20T17:52:45.047Z,19.60
2019-06-20T17:55:14.209Z,19.90
2019-06-20T17:57:42.446Z,19.90
2019-06-20T18:00:11.354Z,20.00
2019-06-20T18:02:38.451Z,20.20
2019-06-20T18:05:07.049Z,19.80
2019-06-20T18:07:35.398Z,19.70
2019-06-20T18:10:05.283Z,19.70
2019-06-20T18:12:33.517Z,19.50
2019-06-20T18:15:01.975Z,19.40
2019-06-20T18:17:30.056Z,19.20
2019-06-20T18:19:58.546Z,19.10
2019-06-20T18:22:26.896Z,19.10
2019-06-20T18:24:54.306Z,19.00
2019-06-20T18:27:22.703Z,18.60
2019-06-20T18:29:50.652Z,18.90
2019-06-20T18:32:18.848Z,19.20
2019-06-20T18:35:00.922Z,18.90
2019-06-20T18:37:30.414Z,18.90
2019-06-20T18:39:46.187Z,18.70
2019-06-20T18:42:14.290Z,18.60
2019-06-20T18:44:42.431Z,18.60
2019-06-20T18:47:10.534Z,18.70
2019-06-20T18:49:39.076Z,18.70
2019-06-20T18:52:06.259Z,18.60
2019-06-20T18:54:34.204Z,18.40
2019-06-20T18:57:02.559Z,18.50
2019-06-20T18:59:32.922Z,18.40
2019-06-20T19:02:01.175Z,18.40
2019-06-20T19:04:44.713Z,18.40
2019-06-20T19:06:58.156Z,18.40
2019-06-20T19:09:25.372Z,18.20
2019-06-20T19:11:53.747Z,18.20
2019-06-20T19:14:21.975Z,18.20
2019-06-20T19:16:50.100Z,18.40
2019-06-20T19:19:20.795Z,18.60
2019-06-20T19:21:48.359Z,18.40
2019-06-20T19:24:16.509Z,18.30
2019-06-20T19:26:43.787Z,18.50
2019-06-20T19:29:12.053Z,18.30
2019-06-20T19:31:40.564Z,18.20
2019-06-20T19:34:08.853Z,18.10
2019-06-20T19:36:37.156Z,18.20
2019-06-20T19:39:06.296Z,18.20
2019-06-20T19:41:34.572Z,18.30
2019-06-20T19:44:02.981Z,18.40
2019-06-20T19:46:31.126Z,18.40
2019-06-20T19:48:59.403Z,18.30
2019-06-20T19:51:27.643Z,18.20
2019-06-20T19:53:55.854Z,18.50
2019-06-20T19:56:24.236Z,18.30
2019-06-20T19:58:51.575Z,18.10
2019-06-20T20:01:19.810Z,18.20
2019-06-20T20:03:48.013Z,18.20
2019-06-20T20:06:16.577Z,18.00
2019-06-20T20:08:44.020Z,18.00
2019-06-20T20:11:12.308Z,18.00
2019-06-20T20:13:40.259Z,17.90
2019-06-20T20:16:08.753Z,17.90
2019-06-20T20:18:37.236Z,17.90
2019-06-20T20:21:05.420Z,17.70
2019-06-20T20:23:33.909Z,17.70
2019-06-20T20:26:01.091Z,17.80
2019-06-20T20:28:29.166Z,17.80
2019-06-20T20:30:57.255Z,17.80
2019-06-20T20:33:25.220Z,17.90
2019-06-20T20:35:53.637Z,17.90
2019-06-20T20:38:21.824Z,17.80
2019-06-20T20:40:49.888Z,17.80
2019-06-20T20:43:17.960Z,17.90
2019-06-20T20:45:46.133Z,17.90
2019-06-20T20:48:17.667Z,17.90
2019-06-20T20:50:45.150Z,17.80
2019-06-20T20:53:12.307Z,17.90
2019-06-20T20:55:39.655Z,17.70
2019-06-20T20:58:06.985Z,17.70
2019-06-20T21:00:43.197Z,17.90
2019-06-20T21:03:11.366Z,18.00
2019-06-20T21:05:50.919Z,18.20
2019-06-20T21:08:09.494Z,17.90
2019-06-20T21:10:36.920Z,17.90
2019-06-20T21:13:05.229Z,17.90
2019-06-20T21:15:33.676Z,17.90
2019-06-20T21:18:02.575Z,18.00
2019-06-20T21:20:31.510Z,18.10
2019-06-20T21:22:58.579Z,18.30
2019-06-20T21:25:26.914Z,18.00
2019-06-20T21:27:55.573Z,17.90
2019-06-20T21:30:23.454Z,17.80
2019-06-20T21:32:52.402Z,17.90
2019-06-20T21:35:21.200Z,17.90
2019-06-20T21:37:49.675Z,18.00
2019-06-20T21:40:18.176Z,18.10
2019-06-20T21:42:46.961Z,17.90
2019-06-20T21:45:14.670Z,17.90
2019-06-20T21:47:43.411Z,17.90
2019-06-20T21:50:12.964Z,17.90
2019-06-20T21:52:40.209Z,17.80
2019-06-20T21:55:08.139Z,18.00
2019-06-20T21:57:36.574Z,17.70
2019-06-20T22:00:10.477Z,17.70
2019-06-20T22:02:38.701Z,17.60
2019-06-20T22:05:07.127Z,17.50
2019-06-20T22:07:35.670Z,17.30
2019-06-20T22:10:04.593Z,17.80
2019-06-20T22:12:33.175Z,17.10
2019-06-20T22:15:02.405Z,17.30
2019-06-20T22:17:30.716Z,17.30
2019-06-20T22:19:59.040Z,17.00
2019-06-20T22:22:26.463Z,17.30
2019-06-20T22:24:55.178Z,17.00
2019-06-20T22:27:23.544Z,16.80
2019-06-20T22:29:51.792Z,17.10
2019-06-20T22:32:20.033Z,17.10
2019-06-20T22:34:54.760Z,17.30
2019-06-20T22:37:22.447Z,17.30
2019-06-20T22:39:49.687Z,17.20
2019-06-20T22:42:16.792Z,17.10
2019-06-20T22:44:43.874Z,17.10
2019-06-20T22:47:12.044Z,17.10
2019-06-20T22:49:40.023Z,17.20
2019-06-20T22:52:08.348Z,17.10
2019-06-20T22:54:37.252Z,17.00
2019-06-20T22:57:04.791Z,16.90
2019-06-20T22:59:33.013Z,16.90
2019-06-20T23:02:01.468Z,16.80
2019-06-20T23:04:29.559Z,16.90
2019-06-20T23:06:57.879Z,16.90
2019-06-20T23:09:27.518Z,16.70
2019-06-20T23:11:56.243Z,16.70
2019-06-20T23:14:24.940Z,16.70
2019-06-20T23:16:52.602Z,17.30
2019-06-20T23:19:20.563Z,17.30
2019-06-20T23:21:49.148Z,17.00
2019-06-20T23:24:17.625Z,16.90
2019-06-20T23:26:46.264Z,17.10
2019-06-20T23:29:23.505Z,16.80
2019-06-20T23:31:52.913Z,16.90
2019-06-20T23:34:21.407Z,16.80
2019-06-20T23:36:49.778Z,17.00
2019-06-20T23:39:18.168Z,17.10
2019-06-20T23:41:46.559Z,16.90
2019-06-20T23:44:15.127Z,16.80
2019-06-20T23:46:43.862Z,17.30
2019-06-20T23:49:12.708Z,16.80
2019-06-20T23:51:47.705Z,16.80
2019-06-20T23:54:16.175Z,17.00
2019-06-20T23:56:44.855Z,16.80
2019-06-20T23:59:13.380Z,16.80
